Terminal Aerodrome Forecast
Issued by NWS Boston, MA

Home | Current Version | Previous Version | Text Only | Print | Product List | Glossary On
Versions: 1 2 3 4 5 6 7 8 9 10 11 12 13 14 15 16 17 18 19 20 21 22 23 24 25 26 27
000
FTUS41 KBOX 271740
TAFORH
TAF
KORH 271740Z 2718/2818 21015G28KT P6SM SCT050
     FM272300 21015KT P6SM SCT050
     FM280300 22013KT P6SM BKN050
     FM280600 22011KT P6SM BKN015
     FM281400 22010KT P6SM SCT050
     FM281700 24011G22KT P6SM BKN050=

USA.gov is the U.S. government's official web portal to all federal, state and local government web resources and services.